Terminal Aerodrome Forecast
Issued by NWS

Home | Current Version | Previous Version | Graphics & Text | Print | Product List | Glossary On
Versions: 1 2 3 4 5 6 7 8 9 10 11 12 13 14 15
000
FTUS45 KGGW 200520
TAFSDY
TAF
KSDY 200520Z 2006/2106 22010KT P6SM SCT130
     FM200900 23009KT P6SM SCT150 WS020/28035KT
     FM201400 24014KT P6SM BKN140 WS020/28040KT
     FM201800 29021G30KT P6SM BKN090
     FM202100 30019G28KT P6SM SCT080
     FM210000 32016KT P6SM SCT070=

USA.gov is the U.S. government's official web portal to all federal, state and local government web resources and services.